Weiz, Austria
Current Conditions -  °F | °C
As of 9:50 AM on Wednesday 26 Nov 2014 (Local Time) from LOWG Reporting Station
Drizzle Drizzle  
Wind Chill: 32°   Ceiling: 1200
Heat Index: 37°   Visibility: 3mi
Dew Point: 36°   Wind: 7mph
Humidity: 93%   Direction: 130°SE
Pressure: 30.21"   Gusts: NA
Location:  47.22°N, 15.62°E
Report Text: LOWG 260850Z 13006KT 110V170 4800 BR -DZ FEW005 SCT009 OVC012 03/02 Q1023 TEMPO 6000 NSW SCT010 BKN016
Loading
Personal Weather Stations






























Interactive Weather Map New forecast layout! Learn more

10-Day Weather Forecast

Advertisements
Track Severe Weather on mobile